Weer

Current Metar

EHAM: EHAM 091455Z 34017G27KT 280V020 9999 FEW020 08/04 Q1006 NOSIG
EHRD: EHRD 091455Z AUTO 35017KT 320V020 9999 -UP FEW029 SCT033 BKN045 08/04 Q1006 NOSIG
EHGG: EHGG 091455Z AUTO 33014KT 290V360 9999 FEW034 08/03 Q1002 TEMPO 32024G34KT 6000 -SHRA SCT020CB
EHEH: EHEH 091455Z AUTO 35015G28KT 270V020 6000 SHRA FEW000 BKN010 BKN014 FEW015CB 07/06 Q1004 GRN 33012KT 9999 SCT012 BKN020 BKN030 TEMPO 34015G25KT 1500 RA SHRA SCT006 BKN012 SCT018CB
EHBK: EHBK 091455Z AUTO 27004KT 220V300 9000 -UP SCT007 BKN008 OVC009 06/06 Q1003 REDZUP BECMG 30010KT TEMPO 6000 SHRA BKN015 SCT020CB

Search METAR


Wind Charts

+ 0600h
FL100 FL180 FL240 FL300 FL340

+ 1200h
FL100 FL180 FL240 FL300 FL340

+ 1800h
FL100 FL180 FL240 FL300 FL340

+ 2400h
FL100 FL180 FL240 FL300 FL340

Europe & Africa charts only, updated daily.

 

Weather Services

MET Office